createdAt,value
2022-11-03T00:01:07.973Z,98.03
2022-11-03T00:03:35.878Z,98.00
2022-11-03T00:06:07.286Z,97.97
2022-11-03T00:08:36.874Z,97.99
2022-11-03T00:11:12.941Z,97.85
2022-11-03T00:13:42.522Z,97.89
2022-11-03T00:16:13.357Z,97.93
2022-11-03T00:18:40.924Z,97.77
2022-11-03T00:21:11.233Z,97.87
2022-11-03T00:23:41.151Z,97.88
2022-11-03T00:26:10.503Z,97.83
2022-11-03T00:28:39.103Z,97.80
2022-11-03T00:31:12.964Z,97.81
2022-11-03T00:33:41.559Z,97.80
2022-11-03T00:36:13.116Z,97.90
2022-11-03T00:38:40.725Z,97.97
2022-11-03T00:41:10.689Z,97.85
2022-11-03T00:43:38.414Z,97.82
2022-11-03T00:46:07.561Z,97.76
2022-11-03T00:48:36.935Z,97.87
2022-11-03T00:51:16.171Z,97.85
2022-11-03T00:53:50.181Z,97.81
2022-11-03T00:56:20.656Z,97.78
2022-11-03T00:58:49.821Z,97.88
2022-11-03T01:01:31.765Z,97.88
2022-11-03T01:04:14.660Z,97.87
2022-11-03T01:06:51.090Z,97.92
2022-11-03T01:09:34.720Z,97.84
2022-11-03T01:12:13.181Z,97.85
2022-11-03T01:14:42.388Z,97.85
2022-11-03T01:17:27.206Z,97.70
2022-11-03T01:19:55.186Z,97.62
2022-11-03T01:22:23.976Z,97.74
2022-11-03T01:24:54.111Z,97.80
2022-11-03T01:27:25.582Z,97.82
2022-11-03T01:29:53.124Z,97.88
2022-11-03T01:32:20.669Z,97.92
2022-11-03T01:34:48.212Z,97.93
2022-11-03T01:37:15.755Z,97.88
2022-11-03T01:39:43.268Z,97.95
2022-11-03T01:42:14.429Z,97.92
2022-11-03T01:44:47.588Z,97.95
2022-11-03T01:47:19.289Z,98.00
2022-11-03T01:49:57.264Z,98.06
2022-11-03T01:52:37.434Z,97.85
2022-11-03T01:55:11.140Z,97.97
2022-11-03T01:57:50.545Z,97.95
2022-11-03T02:00:18.235Z,97.86
2022-11-03T02:02:46.277Z,97.98
2022-11-03T02:05:16.535Z,98.10
2022-11-03T02:07:51.135Z,97.97
2022-11-03T02:10:19.071Z,98.01
2022-11-03T02:12:48.109Z,98.11
2022-11-03T02:15:18.976Z,98.07
2022-11-03T02:17:48.954Z,97.99
2022-11-03T02:20:30.043Z,97.98
2022-11-03T02:23:13.819Z,97.93
2022-11-03T02:25:48.873Z,98.05
2022-11-03T02:28:21.294Z,98.05
2022-11-03T02:31:10.972Z,98.03
2022-11-03T02:33:59.925Z,98.29
2022-11-03T02:36:43.044Z,98.27
2022-11-03T02:39:19.308Z,98.22
2022-11-03T02:41:49.028Z,98.35
2022-11-03T02:44:19.655Z,98.44
2022-11-03T02:46:54.580Z,98.37
2022-11-03T02:49:22.133Z,98.37
2022-11-03T02:51:59.673Z,98.35
2022-11-03T02:54:35.745Z,98.33
2022-11-03T02:57:07.966Z,98.46
2022-11-03T03:00:00.026Z,98.43
2022-11-03T03:02:36.006Z,98.53
2022-11-03T03:05:08.793Z,98.73
2022-11-03T03:07:40.728Z,98.64
2022-11-03T03:10:14.520Z,98.57
2022-11-03T03:12:54.815Z,98.53
2022-11-03T03:15:34.228Z,98.61
2022-11-03T03:18:15.975Z,98.49
2022-11-03T03:21:04.868Z,98.57
2022-11-03T03:23:36.739Z,98.60
2022-11-03T03:26:15.702Z,98.53
2022-11-03T03:29:02.266Z,98.68
2022-11-03T03:31:35.159Z,98.47
2022-11-03T03:34:16.292Z,98.59
2022-11-03T03:36:54.026Z,98.50
2022-11-03T03:39:25.285Z,98.48
2022-11-03T03:41:55.499Z,98.35
2022-11-03T03:44:24.446Z,98.40
2022-11-03T03:46:59.599Z,98.34
2022-11-03T03:49:27.317Z,98.35
2022-11-03T03:51:55.072Z,98.45
2022-11-03T03:54:22.637Z,98.27
2022-11-03T03:57:02.101Z,98.46
2022-11-03T03:59:30.258Z,98.41
2022-11-03T04:01:59.114Z,98.57
2022-11-03T04:04:26.809Z,98.63
2022-11-03T04:07:14.317Z,98.48
2022-11-03T04:09:41.921Z,98.34
2022-11-03T04:12:24.436Z,98.35
2022-11-03T04:15:07.964Z,98.22
2022-11-03T04:17:52.173Z,98.25
2022-11-03T04:20:34.637Z,98.30
2022-11-03T04:23:02.148Z,98.35
2022-11-03T04:25:29.671Z,98.38
2022-11-03T04:27:57.255Z,98.40
2022-11-03T04:30:26.303Z,98.38
2022-11-03T04:32:54.508Z,98.39
2022-11-03T04:35:24.571Z,98.73
2022-11-03T04:37:57.277Z,98.64
2022-11-03T04:40:25.045Z,98.65
2022-11-03T04:42:52.702Z,98.45
2022-11-03T04:45:28.837Z,98.34
2022-11-03T04:47:59.062Z,98.36
2022-11-03T04:50:26.592Z,98.38
2022-11-03T04:53:00.183Z,98.54
2022-11-03T04:55:27.772Z,98.62
2022-11-03T04:58:02.635Z,98.81
2022-11-03T05:00:30.138Z,98.81
2022-11-03T05:02:57.975Z,98.71
2022-11-03T05:05:26.774Z,98.81
2022-11-03T05:07:56.705Z,98.81
2022-11-03T05:10:27.072Z,98.69
2022-11-03T05:12:56.013Z,98.61
2022-11-03T05:15:31.510Z,98.54
2022-11-03T05:18:01.306Z,98.42
2022-11-03T05:20:39.333Z,98.50
2022-11-03T05:23:12.250Z,98.37
2022-11-03T05:25:47.634Z,98.20
2022-11-03T05:28:21.404Z,98.55
2022-11-03T05:30:50.183Z,98.17
2022-11-03T05:33:30.653Z,98.08
2022-11-03T05:36:03.057Z,98.15
2022-11-03T05:38:32.430Z,98.15
2022-11-03T05:41:01.095Z,97.97
2022-11-03T05:43:29.808Z,97.72
2022-11-03T05:46:02.131Z,97.66
2022-11-03T05:48:40.922Z,97.49
2022-11-03T05:51:31.782Z,97.58
2022-11-03T05:54:02.753Z,97.81
2022-11-03T05:56:32.972Z,97.91
2022-11-03T05:59:02.847Z,98.18
2022-11-03T06:01:33.812Z,98.40
2022-11-03T06:04:22.504Z,98.44
2022-11-03T06:06:55.853Z,98.10
2022-11-03T06:09:26.760Z,98.15
2022-11-03T06:11:57.138Z,98.22
2022-11-03T06:14:27.061Z,98.32
2022-11-03T06:16:57.837Z,98.27
2022-11-03T06:19:31.228Z,98.10
2022-11-03T06:22:24.491Z,98.32
2022-11-03T06:25:31.333Z,98.32
2022-11-03T06:28:17.811Z,98.51
2022-11-03T06:30:46.425Z,98.75
2022-11-03T06:33:24.790Z,98.64
2022-11-03T06:35:59.472Z,98.88
2022-11-03T06:38:30.062Z,98.93
2022-11-03T06:40:58.706Z,99.01
2022-11-03T06:43:32.218Z,99.22
2022-11-03T06:46:18.887Z,99.35
2022-11-03T06:48:47.590Z,99.17
2022-11-03T06:51:30.008Z,99.26
2022-11-03T06:53:59.991Z,99.30
2022-11-03T06:56:35.178Z,99.59
2022-11-03T06:59:03.275Z,99.36
2022-11-03T07:01:35.207Z,99.53
2022-11-03T07:04:14.728Z,99.77
2022-11-03T07:06:43.287Z,99.81
2022-11-03T07:09:21.234Z,99.67
2022-11-03T07:11:50.934Z,99.62
2022-11-03T07:14:25.012Z,99.63
2022-11-03T07:16:56.029Z,99.61
2022-11-03T07:19:26.632Z,99.51
2022-11-03T07:22:04.491Z,99.54
2022-11-03T07:24:36.312Z,99.69
2022-11-03T07:27:19.832Z,99.90
2022-11-03T07:29:49.532Z,99.68
2022-11-03T07:32:22.539Z,99.78
2022-11-03T07:34:54.363Z,99.42
2022-11-03T07:37:25.867Z,99.35
2022-11-03T07:39:53.870Z,99.53
2022-11-03T07:42:24.313Z,99.45
2022-11-03T07:44:55.698Z,99.32
2022-11-03T07:47:25.699Z,99.26
2022-11-03T07:49:56.027Z,99.23
2022-11-03T07:52:25.960Z,99.27
2022-11-03T07:54:57.187Z,99.22
2022-11-03T07:57:30.329Z,99.10
2022-11-03T08:00:10.694Z,99.02
2022-11-03T08:02:48.401Z,99.44
2022-11-03T08:05:16.284Z,99.31
2022-11-03T08:07:43.990Z,99.33
2022-11-03T08:10:11.574Z,99.19
2022-11-03T08:12:39.391Z,99.21
2022-11-03T08:15:07.830Z,98.93
2022-11-03T08:17:35.399Z,98.88
2022-11-03T08:20:03.081Z,98.76
2022-11-03T08:22:30.705Z,98.73
2022-11-03T08:24:58.283Z,98.79
2022-11-03T08:27:27.530Z,98.64
2022-11-03T08:29:55.102Z,98.79
2022-11-03T08:32:22.641Z,98.68
2022-11-03T08:34:50.173Z,98.50
2022-11-03T08:37:17.704Z,98.37
2022-11-03T08:39:45.243Z,98.36
2022-11-03T08:42:12.799Z,98.33
2022-11-03T08:44:40.379Z,98.19
2022-11-03T08:47:07.897Z,98.24
2022-11-03T08:49:35.454Z,98.16
2022-11-03T08:52:03.033Z,97.87
2022-11-03T08:54:30.579Z,97.82
2022-11-03T08:56:58.434Z,97.61
2022-11-03T08:59:26.251Z,98.06
2022-11-03T09:01:53.923Z,98.08
2022-11-03T09:04:21.501Z,98.17
2022-11-03T09:06:49.019Z,97.96
2022-11-03T09:12:04.571Z,97.51
2022-11-03T09:14:32.158Z,97.34
2022-11-03T09:16:59.800Z,97.47
2022-11-03T09:19:28.435Z,97.33
2022-11-03T09:21:57.027Z,97.40
2022-11-03T09:24:24.654Z,97.23
2022-11-03T09:26:52.183Z,97.40
2022-11-03T09:29:19.806Z,97.26
2022-11-03T09:31:47.714Z,97.17
2022-11-03T09:34:15.295Z,97.15
2022-11-03T09:36:42.955Z,96.82
2022-11-03T09:39:10.531Z,97.01
2022-11-03T09:41:57.812Z,96.84
2022-11-03T09:44:26.071Z,96.50
2022-11-03T09:46:58.052Z,96.04
2022-11-03T09:49:27.767Z,95.77
2022-11-03T09:51:55.732Z,95.77
2022-11-03T09:54:24.084Z,95.75
2022-11-03T09:56:51.683Z,95.98
2022-11-03T09:59:21.969Z,95.90
2022-11-03T10:01:53.340Z,95.61
2022-11-03T10:04:27.846Z,95.13
2022-11-03T10:06:57.002Z,95.07
2022-11-03T10:09:26.156Z,94.89
2022-11-03T10:11:55.070Z,94.73
2022-11-03T10:14:23.143Z,94.42
2022-11-03T10:17:00.034Z,94.70
2022-11-03T10:19:28.072Z,94.60
2022-11-03T10:21:55.791Z,94.03
2022-11-03T10:24:25.258Z,93.72
2022-11-03T10:26:56.859Z,93.90
2022-11-03T10:29:27.522Z,93.55
2022-11-03T10:31:59.446Z,92.96
2022-11-03T10:34:34.942Z,92.65
2022-11-03T10:37:23.209Z,92.18
2022-11-03T10:39:55.510Z,91.86
2022-11-03T10:42:35.409Z,91.71
2022-11-03T10:45:15.297Z,91.40
2022-11-03T10:47:43.293Z,91.41
2022-11-03T10:50:27.566Z,91.04
2022-11-03T10:52:56.301Z,90.77
2022-11-03T10:55:26.248Z,90.71
2022-11-03T10:57:57.958Z,90.53
2022-11-03T11:00:25.666Z,90.44
2022-11-03T11:02:59.235Z,89.89
2022-11-03T11:05:26.871Z,89.72
2022-11-03T11:07:55.345Z,89.32
2022-11-03T11:10:25.318Z,89.42
2022-11-03T11:13:25.561Z,88.89
2022-11-03T11:15:55.685Z,88.65
2022-11-03T11:18:29.587Z,88.73
2022-11-03T11:21:01.786Z,88.59
2022-11-03T11:23:29.312Z,87.97
2022-11-03T11:26:14.478Z,87.57
2022-11-03T11:28:43.012Z,87.85
2022-11-03T11:31:26.512Z,87.76
2022-11-03T11:34:10.352Z,87.53
2022-11-03T11:36:42.688Z,87.55
2022-11-03T11:39:32.028Z,86.63
2022-11-03T11:42:20.928Z,86.46
2022-11-03T11:44:56.708Z,86.15
2022-11-03T11:47:33.788Z,85.67
2022-11-03T11:50:07.134Z,85.18
2022-11-03T11:52:38.410Z,85.13
2022-11-03T11:55:06.783Z,84.82
2022-11-03T11:57:35.084Z,84.51
2022-11-03T12:00:03.011Z,84.06
2022-11-03T12:02:39.825Z,83.48
2022-11-03T12:05:19.586Z,83.84
2022-11-03T12:07:50.997Z,83.30
2022-11-03T12:10:27.023Z,82.98
2022-11-03T12:13:02.715Z,82.88
2022-11-03T12:15:56.189Z,82.99
2022-11-03T12:18:49.353Z,82.56
2022-11-03T12:21:46.326Z,82.55
2022-11-03T12:24:36.151Z,82.32
2022-11-03T12:27:18.587Z,82.47
2022-11-03T12:29:46.410Z,82.27
2022-11-03T12:32:32.566Z,82.01
2022-11-03T12:35:02.995Z,81.66
2022-11-03T12:37:30.628Z,81.52
2022-11-03T12:39:58.168Z,81.22
2022-11-03T12:42:25.979Z,81.12
2022-11-03T12:44:53.783Z,80.63
2022-11-03T12:47:21.365Z,80.75
2022-11-03T12:49:49.375Z,79.97
2022-11-03T12:52:16.985Z,80.24
2022-11-03T12:54:44.565Z,80.08
2022-11-03T12:57:12.197Z,79.62
2022-11-03T12:59:40.560Z,79.31
2022-11-03T13:02:10.550Z,79.14
2022-11-03T13:04:39.091Z,78.76
2022-11-03T13:07:06.657Z,79.03
2022-11-03T13:09:35.754Z,80.03
2022-11-03T13:12:18.441Z,78.96
2022-11-03T13:14:47.841Z,77.51
2022-11-03T13:17:16.269Z,77.04
2022-11-03T13:19:43.798Z,76.35
2022-11-03T13:22:11.384Z,76.69
2022-11-03T13:24:38.922Z,76.67
2022-11-03T13:27:06.485Z,76.31
2022-11-03T13:29:35.897Z,76.17
2022-11-03T13:32:04.738Z,75.52
2022-11-03T13:34:32.326Z,75.08
2022-11-03T13:37:00.409Z,74.76
2022-11-03T13:39:28.226Z,76.18
2022-11-03T13:41:55.795Z,76.39
2022-11-03T13:44:23.303Z,74.00
2022-11-03T13:46:51.139Z,73.34
2022-11-03T13:52:09.782Z,72.87
2022-11-03T14:00:16.965Z,73.66
2022-11-03T14:05:32.416Z,73.26
2022-11-03T14:07:59.972Z,73.27
2022-11-03T14:10:27.693Z,73.57
2022-11-03T14:12:56.348Z,73.15
2022-11-03T14:15:23.898Z,73.48
2022-11-03T14:17:51.690Z,73.89
2022-11-03T14:20:19.414Z,74.13
2022-11-03T14:22:47.116Z,74.46
2022-11-03T14:25:14.675Z,74.35
2022-11-03T14:27:42.700Z,74.49
2022-11-03T14:30:11.599Z,74.37
2022-11-03T14:32:39.286Z,74.87
2022-11-03T14:35:07.657Z,75.33
2022-11-03T14:37:35.467Z,75.10
2022-11-03T14:40:04.036Z,74.92
2022-11-03T14:42:31.571Z,75.16
2022-11-03T14:44:59.086Z,75.06
2022-11-03T14:47:27.561Z,74.92
2022-11-03T14:49:55.076Z,75.14
2022-11-03T14:52:22.651Z,75.06
2022-11-03T14:54:52.048Z,75.06
2022-11-03T14:57:19.571Z,75.03
2022-11-03T14:59:52.209Z,74.96
2022-11-03T15:02:21.141Z,74.91
2022-11-03T15:04:48.808Z,74.66
2022-11-03T15:07:16.349Z,74.78
2022-11-03T15:09:43.919Z,74.82
2022-11-03T15:12:11.450Z,74.82
2022-11-03T15:14:38.986Z,75.01
2022-11-03T15:17:06.569Z,75.08
2022-11-03T15:19:34.325Z,75.23
2022-11-03T15:22:01.836Z,75.31
2022-11-03T15:27:17.284Z,75.19
2022-11-03T15:29:45.046Z,75.04
2022-11-03T15:32:12.623Z,75.11
2022-11-03T15:34:40.150Z,75.48
2022-11-03T15:37:07.684Z,75.66
2022-11-03T15:39:35.177Z,75.59
2022-11-03T15:42:02.795Z,75.68
2022-11-03T15:44:30.372Z,75.63
2022-11-03T15:46:57.932Z,75.81
2022-11-03T15:49:25.636Z,76.01
2022-11-03T15:51:53.157Z,76.24
2022-11-03T15:54:20.716Z,76.42
2022-11-03T15:56:48.499Z,76.60
2022-11-03T15:59:16.064Z,76.67
2022-11-03T16:01:43.753Z,76.87
2022-11-03T16:04:11.501Z,77.16
2022-11-03T16:07:07.464Z,77.26
2022-11-03T16:09:26.568Z,77.61
2022-11-03T16:11:54.061Z,77.49
2022-11-03T16:14:21.646Z,77.32
2022-11-03T16:16:49.162Z,77.30
2022-11-03T16:19:16.922Z,77.25
2022-11-03T16:21:44.759Z,77.48
2022-11-03T16:24:12.283Z,77.48
2022-11-03T16:26:39.992Z,77.45
2022-11-03T16:29:07.524Z,77.64
2022-11-03T16:31:35.885Z,77.76
2022-11-03T16:34:04.680Z,77.81
2022-11-03T16:36:32.217Z,77.71
2022-11-03T16:38:59.761Z,77.88
2022-11-03T16:41:27.276Z,78.06
2022-11-03T16:43:54.779Z,78.07
2022-11-03T16:46:22.420Z,78.16
2022-11-03T16:48:50.040Z,78.05
2022-11-03T16:51:17.983Z,78.10
2022-11-03T16:53:45.516Z,78.16
2022-11-03T16:56:13.724Z,78.28
2022-11-03T16:58:41.327Z,78.35
2022-11-03T17:01:09.110Z,78.46
2022-11-03T17:03:36.761Z,78.26
2022-11-03T17:06:04.487Z,78.48
2022-11-03T17:08:51.993Z,78.29
2022-11-03T17:11:35.888Z,78.47
2022-11-03T17:14:13.152Z,78.85
2022-11-03T17:16:45.181Z,79.00
2022-11-03T17:19:13.614Z,78.97
2022-11-03T17:21:41.374Z,79.23
2022-11-03T17:24:11.074Z,79.31
2022-11-03T17:26:56.030Z,79.53
2022-11-03T17:29:37.339Z,79.59
2022-11-03T17:32:35.860Z,79.67
2022-11-03T17:35:45.689Z,79.53
2022-11-03T17:38:17.538Z,79.38
2022-11-03T17:40:47.014Z,79.27
2022-11-03T17:43:21.189Z,79.48
2022-11-03T17:45:48.890Z,79.49
2022-11-03T17:48:17.323Z,79.42
2022-11-03T17:50:48.161Z,79.68
2022-11-03T17:53:31.965Z,79.82
2022-11-03T17:56:29.479Z,79.91
2022-11-03T17:58:49.870Z,80.09
2022-11-03T18:01:24.469Z,79.83
2022-11-03T18:03:52.633Z,79.84
2022-11-03T18:06:21.923Z,79.84
2022-11-03T18:12:56.883Z,80.25
2022-11-03T18:15:25.913Z,80.28
2022-11-03T18:17:53.474Z,80.13
2022-11-03T18:20:25.974Z,80.14
2022-11-03T18:22:57.733Z,79.95
2022-11-03T18:25:25.273Z,80.06
2022-11-03T18:27:52.791Z,80.18
2022-11-03T18:30:20.326Z,80.53
2022-11-03T18:32:48.951Z,80.53
2022-11-03T18:35:22.882Z,80.71
2022-11-03T18:37:50.777Z,80.73
2022-11-03T18:40:20.185Z,80.91
2022-11-03T18:42:47.910Z,81.16
2022-11-03T18:45:18.615Z,81.20
2022-11-03T18:47:46.189Z,81.48
2022-11-03T18:50:16.297Z,81.59
2022-11-03T18:52:51.934Z,81.75
2022-11-03T18:55:19.535Z,81.71
2022-11-03T18:57:47.192Z,81.65
2022-11-03T19:00:20.821Z,81.38
2022-11-03T19:02:50.397Z,81.38
2022-11-03T19:05:19.046Z,81.42
2022-11-03T19:07:49.872Z,81.05
2022-11-03T19:10:22.215Z,81.31
2022-11-03T19:12:49.768Z,81.30
2022-11-03T19:15:21.445Z,81.53
2022-11-03T19:17:52.544Z,81.58
2022-11-03T19:20:20.447Z,81.49
2022-11-03T19:22:48.006Z,81.64
2022-11-03T19:25:15.896Z,81.64
2022-11-03T19:27:46.330Z,81.62
2022-11-03T19:30:18.025Z,81.97
2022-11-03T19:32:48.628Z,82.60
2022-11-03T19:35:35.332Z,82.85
2022-11-03T19:38:12.263Z,82.78
2022-11-03T19:41:03.809Z,82.86
2022-11-03T19:43:34.777Z,82.64
2022-11-03T19:46:04.686Z,82.81
2022-11-03T19:48:34.148Z,83.01
2022-11-03T19:51:04.110Z,82.87
2022-11-03T19:53:33.146Z,82.74
2022-11-03T19:56:01.419Z,82.85
2022-11-03T19:58:29.505Z,82.79
2022-11-03T20:00:57.147Z,83.03
2022-11-03T20:03:25.166Z,83.12
2022-11-03T20:05:56.477Z,83.38
2022-11-03T20:08:27.579Z,83.36
2022-11-03T20:10:55.905Z,83.71
2022-11-03T20:13:26.238Z,83.82
2022-11-03T20:16:00.766Z,83.88
2022-11-03T20:18:29.269Z,83.84
2022-11-03T20:20:58.222Z,83.74
2022-11-03T20:23:30.262Z,83.74
2022-11-03T20:25:58.537Z,83.66
2022-11-03T20:28:28.871Z,83.77
2022-11-03T20:30:57.203Z,83.85
2022-11-03T20:33:25.516Z,83.82
2022-11-03T20:35:54.575Z,83.97
2022-11-03T20:38:24.878Z,84.12
2022-11-03T20:40:58.829Z,84.24
2022-11-03T20:43:45.800Z,84.46
2022-11-03T20:46:36.556Z,84.41
2022-11-03T20:49:04.350Z,84.45
2022-11-03T20:51:35.066Z,84.54
2022-11-03T20:54:11.245Z,84.44
2022-11-03T20:56:38.828Z,84.85
2022-11-03T20:59:06.360Z,84.87
2022-11-03T21:01:34.257Z,84.96
2022-11-03T21:04:03.111Z,84.87
2022-11-03T21:06:32.319Z,85.08
2022-11-03T21:08:59.956Z,85.12
2022-11-03T21:11:33.818Z,85.12
2022-11-03T21:14:07.787Z,85.19
2022-11-03T21:16:51.382Z,85.32
2022-11-03T21:19:37.656Z,85.31
2022-11-03T21:22:45.851Z,85.57
2022-11-03T21:25:17.228Z,85.46
2022-11-03T21:27:45.612Z,85.46
2022-11-03T21:30:15.486Z,85.58
2022-11-03T21:32:43.484Z,85.74
2022-11-03T21:35:14.884Z,85.76
2022-11-03T21:37:42.450Z,85.97
2022-11-03T21:40:10.983Z,86.08
2022-11-03T21:42:54.546Z,86.05
2022-11-03T21:45:22.093Z,85.93
2022-11-03T21:48:11.817Z,86.17
2022-11-03T21:50:41.134Z,86.18
2022-11-03T21:53:09.414Z,86.26
2022-11-03T21:55:37.381Z,86.27
2022-11-03T21:58:05.311Z,86.28
2022-11-03T22:00:33.766Z,86.30
2022-11-03T22:03:01.628Z,86.11
2022-11-03T22:05:29.424Z,86.19
2022-11-03T22:07:56.993Z,86.07
2022-11-03T22:10:24.728Z,86.16
2022-11-03T22:12:52.385Z,86.15
2022-11-03T22:15:35.917Z,86.02
2022-11-03T22:18:06.061Z,86.12
2022-11-03T22:20:52.246Z,86.10
2022-11-03T22:23:35.805Z,86.19
2022-11-03T22:26:20.300Z,86.25
2022-11-03T22:29:07.825Z,86.33
2022-11-03T22:31:41.303Z,86.42
2022-11-03T22:34:26.233Z,86.67
2022-11-03T22:36:54.066Z,86.93
2022-11-03T22:39:37.838Z,86.94
2022-11-03T22:42:20.449Z,86.96
2022-11-03T22:45:03.991Z,87.03
2022-11-03T22:47:31.606Z,87.12
2022-11-03T22:49:59.127Z,87.11
2022-11-03T22:52:26.622Z,87.05
2022-11-03T22:54:54.126Z,87.01
2022-11-03T22:57:21.640Z,86.89
2022-11-03T22:59:49.271Z,86.93
2022-11-03T23:02:16.910Z,86.80
2022-11-03T23:04:46.300Z,86.82
2022-11-03T23:07:13.846Z,86.61
2022-11-03T23:09:41.439Z,86.62
2022-11-03T23:12:08.986Z,86.53
2022-11-03T23:14:52.541Z,86.45
2022-11-03T23:17:40.616Z,86.51
2022-11-03T23:20:29.196Z,86.39
2022-11-03T23:22:57.830Z,86.42
2022-11-03T23:25:25.355Z,86.59
2022-11-03T23:27:52.957Z,86.56
2022-11-03T23:30:20.573Z,86.55
2022-11-03T23:32:48.115Z,86.53
2022-11-03T23:35:16.851Z,86.57
2022-11-03T23:37:44.386Z,86.71
2022-11-03T23:40:15.923Z,86.86
2022-11-03T23:42:46.459Z,86.86
2022-11-03T23:45:40.440Z,86.89
2022-11-03T23:48:34.237Z,86.74
2022-11-03T23:51:01.740Z,86.70
2022-11-03T23:53:29.506Z,86.71
2022-11-03T23:56:16.050Z,86.70
2022-11-03T23:58:43.868Z,86.80
